Terminal Aerodrome Forecast
Issued by NWS

Home | Current Version | Previous Version | Graphics & Text | Print | Product List | Glossary On
Versions: 1 2 3 4 5 6 7 8 9 10 11 12 13 14 15 16 17 18 19 20
000
FTUS43 KMPX 211100
TAFRWF
TAF
KRWF 211131Z 2112/2212 18006KT P6SM SCT250
     FM211600 18015G22KT P6SM SCT025
     FM220000 20011KT P6SM SCT010 OVC025
     FM220600 20009KT P6SM SCT005 BKN015=

USA.gov is the U.S. government's official web portal to all federal, state and local government web resources and services.